createdAt,value
2023-04-22T00:01:15.295Z,65.75
2023-04-22T00:04:00.997Z,65.43
2023-04-22T00:06:46.717Z,65.17
2023-04-22T00:09:32.308Z,64.75
2023-04-22T00:12:17.642Z,64.34
2023-04-22T00:15:03.071Z,64.22
2023-04-22T00:17:49.193Z,64.94
2023-04-22T00:20:36.429Z,65.42
2023-04-22T00:23:21.604Z,65.67
2023-04-22T00:26:07.005Z,65.84
2023-04-22T00:28:52.271Z,65.32
2023-04-22T00:31:37.807Z,65.18
2023-04-22T00:34:22.922Z,65.55
2023-04-22T00:37:08.469Z,65.78
2023-04-22T00:39:53.855Z,65.64
2023-04-22T00:42:39.421Z,65.82
2023-04-22T00:45:26.758Z,66.09
2023-04-22T00:48:13.757Z,66.28
2023-04-22T00:50:59.135Z,66.50
2023-04-22T00:53:44.434Z,65.76
2023-04-22T00:56:31.683Z,66.13
2023-04-22T00:59:17.277Z,66.20
2023-04-22T01:02:04.170Z,66.71
2023-04-22T01:04:49.700Z,66.89
2023-04-22T01:07:36.573Z,67.43
2023-04-22T01:10:22.332Z,67.52
2023-04-22T01:13:10.171Z,67.70
2023-04-22T01:15:55.839Z,67.33
2023-04-22T01:18:42.281Z,68.09
2023-04-22T01:21:28.033Z,68.36
2023-04-22T01:24:13.888Z,68.88
2023-04-22T01:26:59.372Z,70.10
2023-04-22T01:29:45.253Z,69.80
2023-04-22T01:32:31.158Z,69.75
2023-04-22T01:35:16.307Z,70.12
2023-04-22T01:38:01.709Z,69.19
2023-04-22T01:40:47.115Z,69.08
2023-04-22T01:43:32.996Z,69.32
2023-04-22T01:46:18.602Z,69.37
2023-04-22T01:49:03.887Z,69.60
2023-04-22T01:51:49.243Z,69.31
2023-04-22T01:54:35.499Z,68.92
2023-04-22T01:57:21.101Z,68.72
2023-04-22T02:00:08.392Z,68.51
2023-04-22T02:03:03.887Z,67.64
2023-04-22T02:05:49.289Z,67.62
2023-04-22T02:08:35.260Z,66.99
2023-04-22T02:11:21.329Z,66.39
2023-04-22T02:14:07.025Z,66.32
2023-04-22T02:16:52.794Z,66.19
2023-04-22T02:19:39.048Z,66.30
2023-04-22T02:22:24.887Z,66.13
2023-04-22T02:25:12.279Z,66.53
2023-04-22T02:27:58.011Z,66.55
2023-04-22T02:30:44.925Z,66.30
2023-04-22T02:33:30.444Z,65.87
2023-04-22T02:36:15.980Z,66.15
2023-04-22T02:39:03.591Z,65.95
2023-04-22T02:41:49.066Z,65.75
2023-04-22T02:44:34.640Z,66.26
2023-04-22T02:47:20.442Z,66.52
2023-04-22T02:50:07.835Z,66.67
2023-04-22T02:52:53.184Z,66.92
2023-04-22T02:55:41.966Z,67.03
2023-04-22T02:58:27.770Z,66.68
2023-04-22T03:01:13.186Z,66.73
2023-04-22T03:03:58.864Z,66.83
2023-04-22T03:06:45.024Z,66.58
2023-04-22T03:09:30.173Z,65.77
2023-04-22T03:12:15.624Z,66.59
2023-04-22T03:15:01.504Z,66.89
2023-04-22T03:17:49.617Z,67.45
2023-04-22T03:20:38.658Z,67.97
2023-04-22T03:23:24.343Z,68.76
2023-04-22T03:26:09.600Z,68.27
2023-04-22T03:28:55.710Z,69.08
2023-04-22T03:31:41.275Z,69.24
2023-04-22T03:34:27.191Z,69.84
2023-04-22T03:37:13.216Z,70.10
2023-04-22T03:39:58.604Z,69.79
2023-04-22T03:42:46.028Z,70.22
2023-04-22T03:45:32.484Z,69.73
2023-04-22T03:48:35.743Z,69.66
2023-04-22T03:51:26.360Z,69.81
2023-04-22T03:54:12.619Z,69.47
2023-04-22T03:57:04.747Z,69.58
2023-04-22T03:59:50.196Z,69.71
2023-04-22T04:02:36.070Z,69.31
2023-04-22T04:05:22.874Z,69.95
2023-04-22T04:08:08.452Z,70.34
2023-04-22T04:10:54.459Z,70.33
2023-04-22T04:13:40.096Z,70.14
2023-04-22T04:16:38.539Z,70.68
2023-04-22T04:19:30.583Z,69.55
2023-04-22T04:22:15.933Z,69.77
2023-04-22T04:25:10.409Z,69.95
2023-04-22T04:27:59.515Z,69.79
2023-04-22T04:30:45.820Z,69.37
2023-04-22T04:33:33.972Z,69.14
2023-04-22T04:36:20.106Z,68.95
2023-04-22T04:39:06.318Z,69.01
2023-04-22T04:41:55.323Z,67.72
2023-04-22T04:44:41.888Z,67.69
2023-04-22T04:47:28.482Z,66.98
2023-04-22T04:50:27.772Z,66.40
2023-04-22T04:53:16.554Z,66.34
2023-04-22T04:56:03.942Z,66.06
2023-04-22T04:58:49.941Z,65.73
2023-04-22T05:01:41.726Z,65.47
2023-04-22T05:04:30.885Z,64.49
2023-04-22T05:07:16.486Z,63.51
2023-04-22T05:10:04.181Z,63.37
2023-04-22T05:12:52.002Z,62.39
2023-04-22T05:15:41.685Z,61.76
2023-04-22T05:18:27.158Z,61.19
2023-04-22T05:21:13.636Z,60.22
2023-04-22T05:23:59.659Z,58.55
2023-04-22T05:26:45.062Z,58.30
2023-04-22T05:29:35.664Z,57.44
2023-04-22T05:32:22.689Z,56.57
2023-04-22T05:35:10.026Z,56.42
2023-04-22T05:37:55.970Z,56.16
2023-04-22T05:40:41.253Z,55.49
2023-04-22T05:43:29.210Z,55.13
2023-04-22T05:46:21.727Z,54.47
2023-04-22T05:49:07.909Z,53.69
2023-04-22T05:52:12.163Z,52.50
2023-04-22T05:55:17.917Z,51.82
2023-04-22T05:58:03.986Z,51.48
2023-04-22T06:01:08.041Z,51.08
2023-04-22T06:04:13.951Z,51.04
2023-04-22T06:06:59.932Z,50.61
2023-04-22T06:09:45.515Z,50.52
2023-04-22T06:12:34.558Z,50.36
2023-04-22T06:15:20.301Z,50.32
2023-04-22T06:18:06.816Z,50.31
2023-04-22T06:20:52.224Z,50.25
2023-04-22T06:23:37.683Z,51.01
2023-04-22T06:26:23.713Z,50.13
2023-04-22T06:29:09.243Z,49.59
2023-04-22T06:31:57.242Z,49.25
2023-04-22T06:34:43.089Z,49.28
2023-04-22T06:37:28.450Z,48.32
2023-04-22T06:40:15.798Z,48.40
2023-04-22T06:43:30.901Z,49.18
2023-04-22T06:46:28.414Z,48.91
2023-04-22T06:49:43.819Z,49.47
2023-04-22T06:52:54.418Z,50.04
2023-04-22T06:55:40.467Z,50.67
2023-04-22T06:58:25.765Z,50.64
2023-04-22T07:01:14.832Z,48.46
2023-04-22T07:04:01.591Z,48.00
2023-04-22T07:06:47.904Z,49.68
2023-04-22T07:09:34.238Z,49.81
2023-04-22T07:12:20.049Z,49.46
2023-04-22T07:15:05.985Z,49.20
2023-04-22T07:17:52.331Z,49.42
2023-04-22T07:20:38.221Z,49.23
2023-04-22T07:23:23.720Z,48.59
2023-04-22T07:26:09.060Z,47.04
2023-04-22T07:28:54.621Z,47.62
2023-04-22T07:31:40.194Z,48.15
2023-04-22T07:34:25.993Z,47.89
2023-04-22T07:37:11.519Z,48.16
2023-04-22T07:39:56.964Z,46.98
2023-04-22T07:42:42.415Z,46.85
2023-04-22T07:45:27.971Z,47.00
2023-04-22T07:48:13.233Z,47.30
2023-04-22T07:50:58.755Z,47.54
2023-04-22T07:53:44.657Z,47.82
2023-04-22T07:56:30.106Z,46.22
2023-04-22T07:59:16.029Z,46.75
2023-04-22T08:02:01.689Z,45.97
2023-04-22T08:04:47.257Z,43.83
2023-04-22T08:07:33.657Z,43.42
2023-04-22T08:10:19.824Z,42.30
2023-04-22T08:13:06.062Z,42.36
2023-04-22T08:15:51.620Z,43.04
2023-04-22T08:18:37.212Z,43.47
2023-04-22T08:21:23.132Z,43.19
2023-04-22T08:24:08.443Z,42.28
2023-04-22T08:26:53.734Z,42.74
2023-04-22T08:29:40.018Z,42.45
2023-04-22T08:32:26.678Z,43.43
2023-04-22T08:35:12.605Z,44.02
2023-04-22T08:37:58.188Z,42.90
2023-04-22T08:40:43.578Z,43.65
2023-04-22T08:43:29.338Z,42.05
2023-04-22T08:46:15.932Z,42.58
2023-04-22T08:49:04.255Z,42.98
2023-04-22T08:51:50.435Z,42.63
2023-04-22T08:54:37.521Z,42.34
2023-04-22T08:57:23.864Z,42.53
2023-04-22T09:00:10.079Z,40.70
2023-04-22T09:02:58.692Z,40.80
2023-04-22T09:05:45.628Z,40.39
2023-04-22T09:08:32.549Z,39.90
2023-04-22T09:11:18.311Z,41.42
2023-04-22T09:14:04.744Z,41.27
2023-04-22T09:16:50.664Z,40.37
2023-04-22T09:19:35.937Z,40.09
2023-04-22T09:22:21.328Z,36.93
2023-04-22T09:25:18.147Z,39.00
2023-04-22T09:28:03.524Z,39.45
2023-04-22T09:30:48.915Z,37.83
2023-04-22T09:33:38.856Z,35.22
2023-04-22T09:36:28.400Z,35.95
2023-04-22T09:39:14.457Z,35.83
2023-04-22T09:42:01.181Z,37.21
2023-04-22T09:44:54.031Z,36.10
2023-04-22T09:47:39.727Z,37.96
2023-04-22T09:50:27.046Z,37.52
2023-04-22T09:53:16.125Z,36.23
2023-04-22T09:56:04.605Z,36.73
2023-04-22T09:58:53.000Z,35.57
2023-04-22T10:01:41.417Z,35.93
2023-04-22T10:04:27.320Z,37.16
2023-04-22T10:07:14.392Z,37.51
2023-04-22T10:10:00.194Z,36.96
2023-04-22T10:12:47.998Z,36.32
2023-04-22T10:15:36.517Z,36.88
2023-04-22T10:18:27.438Z,37.11
2023-04-22T10:21:13.038Z,37.06
2023-04-22T10:24:00.055Z,38.33
2023-04-22T10:26:51.435Z,37.59
2023-04-22T10:29:40.038Z,38.58
2023-04-22T10:32:27.808Z,39.25
2023-04-22T10:35:15.013Z,36.91
2023-04-22T10:38:00.480Z,37.98
2023-04-22T10:41:01.730Z,37.88
2023-04-22T10:43:49.633Z,37.36
2023-04-22T10:46:37.567Z,35.53
2023-04-22T10:49:25.535Z,38.42
2023-04-22T10:52:28.142Z,35.45
2023-04-22T10:55:13.653Z,36.12
2023-04-22T10:57:59.678Z,36.41
2023-04-22T11:00:53.109Z,35.69
2023-04-22T11:03:40.168Z,36.08
2023-04-22T11:06:28.064Z,35.58
2023-04-22T11:09:13.469Z,35.74
2023-04-22T11:12:36.122Z,35.38
2023-04-22T11:15:24.889Z,35.21
2023-04-22T11:18:14.413Z,36.36
2023-04-22T11:21:06.356Z,37.42
2023-04-22T11:23:53.199Z,36.37
2023-04-22T11:26:40.952Z,36.59
2023-04-22T11:29:26.459Z,35.70
2023-04-22T11:32:15.748Z,36.46
2023-04-22T11:35:06.880Z,36.75
2023-04-22T11:37:56.038Z,37.23
2023-04-22T11:40:46.041Z,37.70
2023-04-22T11:43:32.492Z,33.75
2023-04-22T11:46:29.159Z,34.59
2023-04-22T11:49:16.179Z,36.34
2023-04-22T11:52:01.829Z,36.58
2023-04-22T11:54:47.312Z,36.90
2023-04-22T11:57:36.275Z,37.32
2023-04-22T12:00:23.909Z,35.99
2023-04-22T12:03:20.372Z,36.79
2023-04-22T12:06:06.797Z,36.53
2023-04-22T12:08:52.236Z,36.39
2023-04-22T12:11:38.960Z,36.41
2023-04-22T12:14:35.071Z,36.43
2023-04-22T12:17:25.515Z,35.69
2023-04-22T12:20:14.122Z,35.67
2023-04-22T12:22:59.610Z,36.38
2023-04-22T12:25:47.239Z,37.33
2023-04-22T12:28:34.817Z,36.67
2023-04-22T12:31:21.612Z,35.28
2023-04-22T12:34:09.012Z,35.64
2023-04-22T12:36:56.273Z,35.01
2023-04-22T12:39:42.209Z,35.78
2023-04-22T12:42:27.993Z,33.83
2023-04-22T12:45:13.410Z,34.63
2023-04-22T12:47:58.872Z,34.36
2023-04-22T12:50:44.426Z,35.11
2023-04-22T12:53:30.333Z,34.22
2023-04-22T12:56:15.782Z,34.36
2023-04-22T12:59:03.332Z,34.62
2023-04-22T13:01:49.082Z,32.78
2023-04-22T13:04:34.505Z,32.48
2023-04-22T13:07:20.001Z,33.04
2023-04-22T13:10:07.154Z,34.23
2023-04-22T13:12:52.692Z,32.95
2023-04-22T13:15:39.173Z,31.68
2023-04-22T13:18:24.867Z,31.21
2023-04-22T13:21:13.669Z,31.86
2023-04-22T13:23:59.109Z,32.86
2023-04-22T13:26:45.836Z,33.21
2023-04-22T13:29:32.402Z,33.43
2023-04-22T13:32:17.973Z,33.03
2023-04-22T13:35:03.543Z,34.08
2023-04-22T13:37:49.182Z,33.56
2023-04-22T13:40:35.058Z,32.73
2023-04-22T13:43:21.019Z,33.32
2023-04-22T13:46:06.981Z,32.66
2023-04-22T13:48:52.218Z,32.08
2023-04-22T13:51:37.711Z,31.90
2023-04-22T13:54:23.599Z,32.19
2023-04-22T13:57:12.403Z,32.02
2023-04-22T13:59:57.708Z,31.81
2023-04-22T14:02:44.650Z,31.23
2023-04-22T14:05:29.951Z,33.00
2023-04-22T14:08:15.413Z,31.10
2023-04-22T14:11:03.372Z,32.88
2023-04-22T14:13:49.698Z,32.87
2023-04-22T14:16:35.847Z,32.57
2023-04-22T14:19:23.450Z,32.94
2023-04-22T14:22:08.913Z,33.29
2023-04-22T14:24:54.827Z,31.85
2023-04-22T14:27:41.496Z,33.34
2023-04-22T14:30:27.013Z,32.02
2023-04-22T14:33:12.866Z,32.10
2023-04-22T14:35:58.977Z,31.75
2023-04-22T14:38:44.503Z,32.04
2023-04-22T14:41:30.456Z,32.69
2023-04-22T14:44:16.090Z,32.83
2023-04-22T14:47:01.810Z,32.37
2023-04-22T14:49:47.248Z,32.83
2023-04-22T14:52:33.285Z,32.92
2023-04-22T14:55:23.793Z,31.66
2023-04-22T14:58:10.114Z,31.47
2023-04-22T15:00:56.624Z,31.63
2023-04-22T15:03:43.772Z,31.63
2023-04-22T15:06:43.167Z,32.17
2023-04-22T15:09:40.364Z,32.88
2023-04-22T15:12:29.964Z,33.83
2023-04-22T15:15:18.264Z,32.72
2023-04-22T15:18:05.637Z,33.31
2023-04-22T15:20:51.364Z,33.67
2023-04-22T15:23:36.783Z,33.76
2023-04-22T15:26:22.145Z,34.80
2023-04-22T15:29:36.457Z,35.65
2023-04-22T15:32:23.762Z,35.08
2023-04-22T15:35:10.079Z,36.14
2023-04-22T15:37:58.246Z,35.88
2023-04-22T15:40:44.287Z,36.51
2023-04-22T15:43:30.813Z,36.54
2023-04-22T15:46:16.727Z,36.72
2023-04-22T15:49:03.278Z,36.69
2023-04-22T15:51:49.419Z,37.14
2023-04-22T15:54:35.173Z,37.63
2023-04-22T15:57:20.984Z,36.35
2023-04-22T16:00:13.416Z,37.04
2023-04-22T16:03:02.346Z,37.66
2023-04-22T16:05:47.826Z,37.36
2023-04-22T16:08:33.186Z,37.56
2023-04-22T16:11:19.107Z,37.84
2023-04-22T16:14:04.830Z,38.06
2023-04-22T16:17:03.748Z,38.58
2023-04-22T16:19:52.457Z,37.73
2023-04-22T16:22:38.258Z,38.22
2023-04-22T16:25:24.209Z,38.98
2023-04-22T16:28:11.560Z,39.36
2023-04-22T16:30:57.291Z,39.25
2023-04-22T16:33:43.103Z,39.66
2023-04-22T16:36:29.169Z,40.37
2023-04-22T16:39:14.611Z,41.48
2023-04-22T16:42:00.151Z,41.34
2023-04-22T16:44:45.523Z,41.14
2023-04-22T16:47:30.925Z,40.63
2023-04-22T16:50:17.288Z,40.97
2023-04-22T16:53:02.892Z,41.28
2023-04-22T16:55:48.031Z,42.13
2023-04-22T16:58:33.458Z,42.93
2023-04-22T17:01:18.887Z,43.17
2023-04-22T17:04:04.823Z,43.77
2023-04-22T17:06:50.063Z,44.49
2023-04-22T17:09:35.551Z,44.43
2023-04-22T17:12:21.197Z,44.58
2023-04-22T17:15:07.647Z,45.28
2023-04-22T17:17:53.242Z,44.52
2023-04-22T17:20:40.003Z,43.94
2023-04-22T17:23:27.301Z,43.93
2023-04-22T17:26:12.711Z,45.18
2023-04-22T17:28:58.212Z,44.41
2023-04-22T17:31:43.638Z,44.48
2023-04-22T17:34:28.807Z,44.68
2023-04-22T17:37:14.195Z,45.11
2023-04-22T17:39:59.630Z,45.19
2023-04-22T17:42:46.488Z,44.92
2023-04-22T17:45:32.125Z,44.45
2023-04-22T17:48:17.782Z,44.84
2023-04-22T17:51:06.592Z,45.82
2023-04-22T17:53:53.044Z,46.83
2023-04-22T17:56:38.463Z,47.66
2023-04-22T17:59:24.339Z,47.61
2023-04-22T18:02:12.130Z,48.17
2023-04-22T18:04:58.291Z,48.26
2023-04-22T18:07:43.943Z,48.71
2023-04-22T18:10:30.126Z,49.00
2023-04-22T18:13:16.140Z,49.63
2023-04-22T18:16:02.076Z,50.27
2023-04-22T18:18:47.317Z,50.24
2023-04-22T18:21:34.264Z,51.28
2023-04-22T18:24:19.812Z,50.64
2023-04-22T18:27:05.637Z,51.55
2023-04-22T18:29:51.609Z,52.07
2023-04-22T18:32:38.004Z,52.77
2023-04-22T18:35:23.729Z,52.73
2023-04-22T18:38:09.052Z,53.41
2023-04-22T18:40:55.306Z,54.19
2023-04-22T18:43:41.617Z,54.24
2023-04-22T18:46:27.033Z,54.21
2023-04-22T18:49:12.381Z,55.21
2023-04-22T18:51:57.808Z,56.56
2023-04-22T18:54:43.542Z,58.13
2023-04-22T18:57:29.472Z,58.77
2023-04-22T19:00:16.831Z,58.75
2023-04-22T19:03:05.156Z,59.03
2023-04-22T19:05:51.309Z,60.13
2023-04-22T19:08:36.817Z,60.87
2023-04-22T19:11:23.103Z,61.33
2023-04-22T19:14:11.343Z,61.28
2023-04-22T19:16:59.132Z,61.44
2023-04-22T19:19:45.567Z,61.88
2023-04-22T19:22:31.273Z,63.31
2023-04-22T19:25:18.795Z,62.86
2023-04-22T19:28:04.765Z,62.12
2023-04-22T19:30:51.724Z,61.03
2023-04-22T19:33:37.288Z,60.98
2023-04-22T19:36:23.086Z,61.50
2023-04-22T19:39:08.864Z,61.19
2023-04-22T19:41:54.252Z,60.82
2023-04-22T19:44:42.873Z,61.00
2023-04-22T19:47:28.673Z,61.59
2023-04-22T19:50:14.499Z,61.27
2023-04-22T19:53:04.639Z,60.86
2023-04-22T19:55:50.498Z,60.68
2023-04-22T19:58:36.383Z,59.94
2023-04-22T20:01:22.682Z,59.51
2023-04-22T20:04:08.879Z,59.42
2023-04-22T20:06:55.094Z,59.95
2023-04-22T20:09:42.045Z,60.00
2023-04-22T20:12:30.892Z,59.86
2023-04-22T20:15:17.077Z,59.49
2023-04-22T20:18:02.566Z,59.52
2023-04-22T20:20:49.436Z,59.46
2023-04-22T20:23:35.556Z,59.02
2023-04-22T20:26:21.020Z,58.95
2023-04-22T20:29:07.985Z,59.32
2023-04-22T20:31:55.660Z,58.72
2023-04-22T20:34:41.849Z,59.68
2023-04-22T20:37:28.700Z,59.94
2023-04-22T20:40:15.077Z,59.93
2023-04-22T20:43:00.447Z,60.06
2023-04-22T20:45:46.041Z,59.42
2023-04-22T20:48:31.286Z,59.85
2023-04-22T20:51:16.767Z,60.26
2023-04-22T20:54:02.184Z,59.90
2023-04-22T20:56:47.663Z,59.71
2023-04-22T20:59:33.794Z,60.62
2023-04-22T21:02:20.328Z,60.29
2023-04-22T21:05:06.823Z,60.24
2023-04-22T21:07:52.695Z,60.53
2023-04-22T21:10:38.606Z,60.44
2023-04-22T21:13:24.547Z,60.94
2023-04-22T21:16:11.271Z,61.62
2023-04-22T21:19:01.068Z,62.96
2023-04-22T21:21:47.614Z,62.86
2023-04-22T21:24:35.059Z,63.36
2023-04-22T21:27:22.204Z,63.37
2023-04-22T21:30:08.866Z,63.33
2023-04-22T21:32:54.408Z,63.74
2023-04-22T21:35:39.832Z,64.27
2023-04-22T21:38:25.558Z,64.20
2023-04-22T21:41:11.455Z,64.46
2023-04-22T21:43:56.903Z,64.33
2023-04-22T21:46:42.403Z,62.96
2023-04-22T21:49:27.818Z,63.71
2023-04-22T21:52:13.367Z,63.52
2023-04-22T21:54:58.648Z,63.27
2023-04-22T21:57:44.294Z,63.54
2023-04-22T22:00:30.773Z,64.14
2023-04-22T22:03:16.151Z,64.22
2023-04-22T22:06:01.655Z,64.52
2023-04-22T22:08:47.491Z,64.54
2023-04-22T22:11:33.349Z,64.91
2023-04-22T22:14:19.240Z,64.93
2023-04-22T22:17:08.331Z,64.91
2023-04-22T22:19:56.018Z,64.40
2023-04-22T22:22:42.852Z,63.33
2023-04-22T22:25:28.399Z,63.61
2023-04-22T22:28:13.796Z,64.03
2023-04-22T22:31:02.369Z,64.15
2023-04-22T22:33:47.648Z,64.31
2023-04-22T22:36:33.019Z,64.83
2023-04-22T22:39:18.542Z,64.28
2023-04-22T22:42:04.023Z,63.75
2023-04-22T22:44:49.418Z,63.39
2023-04-22T22:47:35.522Z,63.42
2023-04-22T22:50:21.394Z,63.82
2023-04-22T22:53:06.863Z,64.00
2023-04-22T22:55:52.007Z,64.61
2023-04-22T22:58:37.946Z,64.54
2023-04-22T23:01:23.474Z,64.44
2023-04-22T23:04:09.077Z,64.57
2023-04-22T23:06:55.392Z,64.06
2023-04-22T23:09:40.952Z,63.94
2023-04-22T23:12:26.437Z,64.10
2023-04-22T23:15:11.902Z,64.75
2023-04-22T23:17:57.399Z,65.04
2023-04-22T23:20:43.937Z,65.32
2023-04-22T23:23:30.721Z,65.34
2023-04-22T23:26:16.435Z,65.42
2023-04-22T23:29:02.385Z,65.19
2023-04-22T23:31:50.866Z,64.88
2023-04-22T23:34:40.973Z,65.40
2023-04-22T23:37:28.476Z,64.90
2023-04-22T23:40:13.912Z,64.62
2023-04-22T23:42:59.171Z,65.08
2023-04-22T23:45:45.250Z,65.43
2023-04-22T23:48:30.803Z,66.02
2023-04-22T23:51:16.827Z,66.08
2023-04-22T23:54:02.306Z,66.24
2023-04-22T23:56:47.976Z,66.02
2023-04-22T23:59:33.923Z,66.08
